Wilmington, NC

1:12 PM EDT on May 25, 2017 (GMT -0400)
NC State Ports MTB | | Change Station

Elev 20 ft 34.20 °N, 77.95 °W | Updated 1 second ago

Partly Cloudy
Partly Cloudy
76.3 °F
Feels Like 78 °F
N
17.0
Wind Variable Wind from WNW
Gusts 20.0 mph

Today
High -- | Low -- °F
--% Chance of Precip.
Yesterday
High -- | Low -- °F
Precip. -- in
Pressure 29.62 in
Visibility 10.0 miles
Clouds Few 4300 ft
Scattered Clouds 5500 ft
Scattered Clouds 10000 ft
Heat Index 78 °F
Dew Point 59 °F
Humidity 56%
Rainfall 0.00 in
Snow Depth Not available.
6:03 AM 8:14 PM
Waning Crescent, 0% visible
METAR KILM 251653Z 21013G25KT 10SM FEW043 SCT055 SCT100 25/14 A2962 RMK AO2 SLP030 T02500144
Pressure 29.62 in
Visibility 10.0 miles
Clouds Few 4300 ft
Scattered Clouds 5500 ft
Scattered Clouds 10000 ft
Heat Index 78 °F
Dew Point 59 °F
Humidity 56%
Rainfall 0.00 in
Snow Depth Not available.
6:03 AM 8:14 PM
Waning Crescent, 0% visible
METAR KILM 251653Z 21013G25KT 10SM FEW043 SCT055 SCT100 25/14 A2962 RMK AO2 SLP030 T02500144

Get Severe Weather Alerts

Thanks for signing up!

Be on the lookout for a verification email in your inbox.

You'll start receiving the daily forecast at 6 AM.

×

10-Day Weather Forecast

Almanac

Astronomy

May. 25, 2017 Rise Set
Actual Time
Civil Twilight
Nautical Twilight
Astronomical Twilight
Moon
Length of Visible Light
Length of Day
Tomorrow will be .
, % of the Moon is Illuminated

Today's Extremes

State Highs State Lows

Community

WunderPhotos

Category 6

Welcome to Category 6. This is the collective home for Weather Underground's featured writeups by Dr. Jeff Masters (right), Bob Henson (left), Chris Burt, and other regular contributors.

Nearby

Air Quality

  Air Quality AQ Index Pollutant
Not available.

Snow Depth

Station Depth Elevation

Earthquake Activity

City Distance Mag. Time & Date
Minimum magnitude displayed is 2.5.

Coastal Water Temperatures

Place Temperature

Stations

Nearby Weather Stations

Station Location Temp. Windchill Dew Point Humidity Wind Precip. Elev Updated Type
                   

Watches & Warnings

There are currently no watches in effect.